Time;durP1;ratioP1;P1;durP2;ratioP2;P2;SDS_P1;SDS_P2;PMS_P1;PMS_P2;Temp;Humidity;BMP_temperature;BMP_pressure;BME280_temperature;BME280_humidity;BME280_pressure;Samples;Min_cycle;Max_cycle;Signal;HPM_P1;HPM_P2
2022/01/10 00:03:24;;;;;;;29.33;8.27;;;;;;;0.25;nan;101040.09;10397213;28;20562;-84
2022/01/10 00:08:25;;;;;;;30.38;8.80;;;;;;;0.15;nan;101048.72;10446861;28;20550;-84
2022/01/10 00:13:27;;;;;;;43.05;8.85;;;;;;;0.14;nan;101050.38;10419689;28;20092;-84
2022/01/10 00:18:29;;;;;;;31.67;9.20;;;;;;;0.16;nan;101063.16;10417822;28;20049;-84
2022/01/10 00:23:31;;;;;;;25.52;8.88;;;;;;;0.07;nan;101065.94;10378553;28;20076;-84
2022/01/10 00:28:33;;;;;;;29.90;8.98;;;;;;;0.07;nan;101076.06;10394150;28;20053;-84
2022/01/10 00:33:35;;;;;;;28.10;8.68;;;;;;;0.09;nan;101073.63;10394575;28;20047;-84
2022/01/10 00:38:37;;;;;;;20.13;8.30;;;;;;;-0.02;nan;101076.28;10377540;28;20539;-84
2022/01/10 00:43:45;;;;;;;25.77;7.82;;;;;;;-0.02;nan;101086.41;10378354;28;20038;-84
2022/01/10 00:48:49;;;;;;;27.00;9.53;;;;;;;-0.01;nan;101093.22;10443081;28;20052;-84
2022/01/10 00:53:52;;;;;;;32.10;9.40;;;;;;;0.13;nan;101091.69;10401721;28;20451;-83
2022/01/10 00:58:54;;;;;;;36.70;8.95;;;;;;;-0.02;nan;101106.66;10417666;28;20041;-84
2022/01/10 01:03:56;;;;;;;21.33;8.38;;;;;;;-0.03;nan;101119.22;10412389;28;20045;-83
2022/01/10 01:09:02;;;;;;;33.63;10.50;;;;;;;-0.04;nan;101128.47;10426888;28;20408;-84
2022/01/10 01:14:10;;;;;;;27.33;9.13;;;;;;;-0.27;nan;101139.47;10405149;28;20052;-84
2022/01/10 01:19:54;;;;;;;27.45;9.27;;;;;;;-0.25;nan;101152.22;10433116;28;20049;-84
2022/01/10 01:24:36;;;;;;;21.38;9.05;;;;;;;-0.25;nan;101152.22;10433668;28;20052;-84
2022/01/10 01:29:38;;;;;;;24.83;9.05;;;;;;;-0.37;nan;101158.16;10433698;28;20045;-85
2022/01/10 01:34:40;;;;;;;15.73;8.50;;;;;;;-0.50;nan;101176.63;10433712;28;20045;-84
2022/01/10 01:39:42;;;;;;;21.40;8.43;;;;;;;-0.50;nan;101185.88;10438602;28;20052;-85
2022/01/10 01:44:48;;;;;;;20.65;8.13;;;;;;;-0.47;nan;101193.69;10422792;28;20045;-86
2022/01/10 01:49:51;;;;;;;22.20;7.97;;;;;;;-0.52;nan;101212.72;10400321;28;20037;-84
2022/01/10 01:54:55;;;;;;;29.25;7.78;;;;;;;-0.48;nan;101224.81;10420739;28;20052;-85
2022/01/10 01:59:57;;;;;;;39.83;7.47;;;;;;;-0.66;nan;101222.69;10407614;28;20608;-85
2022/01/10 02:04:59;;;;;;;19.95;8.60;;;;;;;-0.73;nan;101222.97;10420801;28;20037;-84
2022/01/10 02:10:04;;;;;;;27.75;8.90;;;;;;;-0.57;nan;101231.72;10414294;28;20219;-84
2022/01/10 02:15:06;;;;;;;21.23;8.80;;;;;;;-0.74;nan;101235.47;10419057;28;20037;-84
2022/01/10 02:20:08;;;;;;;40.10;8.45;;;;;;;-0.76;nan;101237.91;10407687;28;20048;-84
2022/01/10 02:25:10;;;;;;;17.55;8.32;;;;;;;-0.68;nan;101246.09;10431471;28;20132;-84
2022/01/10 02:30:13;;;;;;;29.13;8.63;;;;;;;-0.72;nan;101257.63;10408067;28;20074;-84
2022/01/10 02:35:25;;;;;;;21.73;9.45;;;;;;;-0.71;nan;101266.97;10440158;28;20048;-84
2022/01/10 02:40:30;;;;;;;20.40;8.65;;;;;;;-0.81;nan;101282.22;10412907;28;20408;-84
2022/01/10 02:45:32;;;;;;;21.83;9.95;;;;;;;-0.93;nan;101293.91;10398430;28;20041;-84
2022/01/10 02:50:36;;;;;;;44.40;10.13;;;;;;;-0.87;nan;101292.72;10425901;28;20504;-84
2022/01/10 02:55:38;;;;;;;27.33;10.15;;;;;;;-0.97;nan;101313.91;10382976;28;20481;-85
2022/01/10 03:00:40;;;;;;;21.48;9.18;;;;;;;-1.19;nan;101320.53;10411679;28;20056;-84
2022/01/10 03:05:42;;;;;;;175.02;12.63;;;;;;;-1.46;nan;101322.63;10384357;28;20046;-84
2022/01/10 03:10:44;;;;;;;48.60;12.00;;;;;;;-1.29;nan;101334.97;10413973;28;20517;-84
2022/01/10 03:15:47;;;;;;;31.23;11.80;;;;;;;-1.13;nan;101337.09;10431491;28;20508;-84
2022/01/10 03:20:49;;;;;;;33.22;10.52;;;;;;;-1.20;nan;101346.56;10438213;28;20072;-84
2022/01/10 03:25:51;;;;;;;32.58;10.00;;;;;;;-1.24;nan;101344.56;10438446;28;20037;-85
2022/01/10 03:30:54;;;;;;;93.22;13.57;;;;;;;-1.32;nan;101354.97;10437529;28;20045;-84
2022/01/10 03:35:56;;;;;;;175.85;14.57;;;;;;;-1.35;nan;101364.81;10437777;28;20044;-84
2022/01/10 03:40:58;;;;;;;72.55;13.25;;;;;;;-1.35;nan;101367.34;10437955;28;20531;-84
2022/01/10 03:46:00;;;;;;;188.00;16.13;;;;;;;-1.44;nan;101375.06;10437598;28;20091;-84
2022/01/10 03:51:02;;;;;;;20.15;13.02;;;;;;;-1.30;nan;101396.38;10436774;28;20574;-84
2022/01/10 03:56:05;;;;;;;27.92;14.70;;;;;;;-1.68;nan;101399.19;10415949;28;20037;-82
2022/01/10 04:01:09;;;;;;;27.13;13.82;;;;;;;-1.37;nan;101418.53;10379111;28;20074;-84
2022/01/10 04:06:13;;;;;;;31.75;12.45;;;;;;;-1.44;nan;101429.75;10379656;28;20041;-83
2022/01/10 04:11:15;;;;;;;57.97;14.13;;;;;;;-1.47;nan;101430.41;10379052;28;20136;-83
2022/01/10 04:16:16;;;;;;;95.07;14.45;;;;;;;-1.60;nan;101433.53;10412918;28;20088;-83
2022/01/10 04:21:18;;;;;;;52.55;16.80;;;;;;;-1.81;nan;101444.38;10378337;28;20053;-83
2022/01/10 04:26:20;;;;;;;26.73;13.55;;;;;;;-1.67;nan;101456.53;10394999;28;20046;-83
2022/01/10 04:31:23;;;;;;;41.13;15.95;;;;;;;-1.75;nan;101460.06;10394474;28;20053;-83
2022/01/10 04:36:26;;;;;;;34.42;15.85;;;;;;;-1.77;nan;101476.75;10394409;28;20484;-83
2022/01/10 04:41:28;;;;;;;65.97;16.73;;;;;;;-1.69;nan;101487.47;10427626;28;20076;-82
2022/01/10 04:46:32;;;;;;;105.38;20.90;;;;;;;-1.73;nan;101511.59;10394347;28;20186;-83
2022/01/10 04:51:34;;;;;;;58.72;17.20;;;;;;;-1.72;nan;101517.56;10393795;28;20042;-83
2022/01/10 04:56:36;;;;;;;43.42;17.23;;;;;;;-1.74;nan;101524.97;10394436;28;20045;-83
2022/01/10 05:01:39;;;;;;;45.63;17.45;;;;;;;-1.79;nan;101537.22;10401704;28;20099;-83
2022/01/10 05:06:42;;;;;;;51.47;18.33;;;;;;;-1.86;nan;101542.50;10410092;28;20048;-83
2022/01/10 05:11:45;;;;;;;35.08;16.60;;;;;;;-1.82;nan;101546.16;10376679;28;20052;-83
2022/01/10 05:16:47;;;;;;;33.50;17.38;;;;;;;-1.80;nan;101557.28;10402255;28;20045;-83
2022/01/10 05:21:49;;;;;;;43.78;19.23;;;;;;;-2.00;nan;101570.72;10385237;28;20052;-83
2022/01/10 05:26:52;;;;;;;45.35;18.00;;;;;;;-1.78;nan;101583.59;10402531;28;20050;-83
2022/01/10 05:31:57;;;;;;;36.22;17.27;;;;;;;-1.87;nan;101587.84;10434624;28;20103;-83
2022/01/10 05:37:12;;;;;;;41.85;19.00;;;;;;;-1.86;nan;101599.72;10401360;28;20838;-83
2022/01/10 05:42:14;;;;;;;51.42;19.63;;;;;;;-1.81;nan;101613.63;10417285;28;20049;-84
2022/01/10 05:47:16;;;;;;;112.70;22.20;;;;;;;-1.73;nan;101632.00;10422110;28;20041;-84
2022/01/10 05:52:19;;;;;;;157.07;25.25;;;;;;;-1.85;nan;101639.38;10458217;28;20055;-80
2022/01/10 05:57:26;;;;;;;228.18;24.42;;;;;;;-1.67;nan;101653.59;10445798;28;20037;-80
2022/01/10 06:02:29;;;;;;;154.88;23.33;;;;;;;-1.73;nan;101658.13;10439746;28;20582;-81
2022/01/10 06:07:31;;;;;;;216.85;25.90;;;;;;;-1.68;nan;101656.91;10409336;28;20094;-81
2022/01/10 06:12:33;;;;;;;152.45;25.42;;;;;;;-1.56;nan;101672.22;10385038;28;20069;-81
2022/01/10 06:17:35;;;;;;;180.10;26.10;;;;;;;-1.49;nan;101677.06;10401228;28;20059;-81
2022/01/10 06:22:37;;;;;;;107.57;24.02;;;;;;;-1.62;nan;101687.75;10400350;28;20047;-81
2022/01/10 06:27:41;;;;;;;82.45;21.95;;;;;;;-1.70;nan;101696.31;10416332;28;20124;-81
2022/01/10 06:32:46;;;;;;;110.30;21.98;;;;;;;-1.67;nan;101703.25;10434607;28;20047;-81
2022/01/10 06:37:54;;;;;;;181.05;29.35;;;;;;;-1.71;nan;101721.44;10431173;28;20124;-84
2022/01/10 06:42:57;;;;;;;125.50;25.15;;;;;;;-1.56;nan;101732.00;10449377;28;20045;-84
2022/01/10 06:48:02;;;;;;;181.48;26.15;;;;;;;-1.50;nan;101745.19;10423754;28;20064;-84
2022/01/10 06:53:07;;;;;;;212.75;26.20;;;;;;;-1.51;nan;101756.94;10415800;28;20072;-84
2022/01/10 06:58:09;;;;;;;144.05;27.17;;;;;;;-1.62;nan;101771.16;10424647;28;20046;-84
2022/01/10 07:03:11;;;;;;;117.05;25.27;;;;;;;-1.56;nan;101772.44;10411790;28;20049;-84
2022/01/10 07:08:22;;;;;;;153.63;25.90;;;;;;;-1.76;nan;101782.53;10395684;28;20124;-84
2022/01/10 07:13:32;;;;;;;;;;;;;;;-1.69;nan;101796.63;10397504;28;20396;-84
2022/01/10 07:18:37;;;;;;;76.20;27.13;;;;;;;-2.05;nan;101820.34;10436193;28;20368;-84
2022/01/10 07:23:48;;;;;;;100.15;24.92;;;;;;;-1.72;nan;101831.72;10396080;28;20045;-84
2022/01/10 07:28:50;;;;;;;90.25;27.08;;;;;;;-1.71;nan;101833.50;10415080;28;20037;-84
2022/01/10 07:33:52;;;;;;;77.75;25.75;;;;;;;-1.66;nan;101847.41;10416514;28;20076;-84
2022/01/10 07:38:54;;;;;;;64.15;25.40;;;;;;;-1.75;nan;101869.34;10392700;28;20069;-83
2022/01/10 07:43:56;;;;;;;71.72;22.77;;;;;;;-1.66;nan;101880.25;10412597;28;20044;-84
2022/01/10 07:49:00;;;;;;;82.78;22.75;;;;;;;-1.68;nan;101889.38;10411132;28;20041;-84
2022/01/10 07:54:02;;;;;;;62.72;23.15;;;;;;;-1.79;nan;101890.00;10402493;28;20049;-84
2022/01/10 07:59:05;;;;;;;75.97;22.73;;;;;;;-1.59;nan;101896.88;10414115;28;20575;-84
2022/01/10 08:04:06;;;;;;;97.90;22.00;;;;;;;-1.80;nan;101908.44;10432257;28;20049;-84
2022/01/10 08:09:08;;;;;;;59.92;27.70;;;;;;;-1.81;nan;101925.25;10412242;28;20041;-84
2022/01/10 08:14:10;;;;;;;114.30;23.70;;;;;;;-1.83;nan;101933.44;10425687;28;20468;-84
2022/01/10 08:19:12;;;;;;;75.72;26.58;;;;;;;-1.67;nan;101946.72;10394473;28;20116;-84
2022/01/10 08:24:14;;;;;;;71.40;23.50;;;;;;;-1.78;nan;101952.44;10409013;28;20033;-83
2022/01/10 08:29:15;;;;;;;49.20;21.70;;;;;;;-1.84;nan;101965.38;10391271;28;20033;-84
2022/01/10 08:34:19;;;;;;;44.83;23.02;;;;;;;-1.73;nan;101966.38;10392461;28;20120;-83
2022/01/10 08:39:21;;;;;;;91.97;24.13;;;;;;;-1.75;nan;101978.00;10394738;28;20069;-84
2022/01/10 08:44:23;;;;;;;81.07;25.00;;;;;;;-1.68;nan;101985.38;10420421;28;20465;-83
2022/01/10 08:49:24;;;;;;;56.78;24.35;;;;;;;-1.56;nan;101990.66;10427889;28;20045;-84
2022/01/10 08:54:26;;;;;;;56.70;29.17;;;;;;;-1.57;nan;101996.50;10401271;28;20124;-83
2022/01/10 08:59:31;;;;;;;49.67;24.05;;;;;;;-1.65;nan;102005.88;10375792;28;20167;-84
2022/01/10 09:04:32;;;;;;;171.00;29.25;;;;;;;-1.36;nan;102010.19;10413390;28;20511;-83
2022/01/10 09:09:36;;;;;;;103.60;37.65;;;;;;;-1.33;nan;102030.72;10377021;28;20053;-82
2022/01/10 09:14:38;;;;;;;70.82;29.15;;;;;;;-1.34;nan;102041.56;10394353;28;20061;-84
2022/01/10 09:19:40;;;;;;;92.70;26.55;;;;;;;-1.11;nan;102047.84;10411061;28;20643;-83
2022/01/10 09:24:46;;;;;;;190.07;28.55;;;;;;;-1.04;nan;102057.78;10393565;28;20046;-83
2022/01/10 09:29:49;;;;;;;66.95;26.17;;;;;;;-1.01;nan;102065.66;10376946;28;20058;-83
2022/01/10 09:34:51;;;;;;;103.28;27.67;;;;;;;-0.83;nan;102085.78;10377466;28;20050;-83
2022/01/10 09:39:52;;;;;;;116.13;28.02;;;;;;;-0.85;nan;102094.84;10376910;28;20172;-82
2022/01/10 09:44:55;;;;;;;94.50;28.13;;;;;;;-0.83;nan;102093.38;10393355;28;20519;-83
2022/01/10 09:49:56;;;;;;;84.32;30.92;;;;;;;-0.58;nan;102101.53;10392818;28;20041;-82
2022/01/10 09:54:58;;;;;;;131.75;31.92;;;;;;;-0.40;nan;102104.84;10376915;28;20183;-83
2022/01/10 10:00:00;;;;;;;172.55;30.70;;;;;;;-0.30;nan;102125.91;10416572;28;20103;-82
2022/01/10 10:05:08;;;;;;;422.42;37.38;;;;;;;-0.23;nan;102139.28;10384149;28;20516;-82
2022/01/10 10:10:13;;;;;;;279.42;67.97;;;;;;;-0.14;nan;102134.16;10400109;28;20079;-82
2022/01/10 10:15:18;;;;;;;262.30;44.35;;;;;;;-0.17;nan;102138.91;10416429;28;20041;-83
2022/01/10 10:20:21;;;;;;;412.60;47.03;;;;;;;-0.36;nan;102147.41;10399564;28;20131;-82
2022/01/10 10:25:53;;;;;;;363.17;60.70;;;;;;;-0.30;nan;102149.63;10386069;28;20488;-82
2022/01/10 10:30:58;;;;;;;217.57;36.65;;;;;;;0.06;nan;102158.72;10415781;28;20045;-82
2022/01/10 10:36:07;;;;;;;279.33;65.80;;;;;;;0.04;nan;102169.47;10399544;28;20221;-82
2022/01/10 10:41:10;;;;;;;252.25;36.85;;;;;;;0.29;nan;102178.47;10382831;28;20049;-82
2022/01/10 10:46:16;;;;;;;287.92;56.17;;;;;;;0.30;nan;102190.41;10416806;28;20100;-83
2022/01/10 10:51:19;;;;;;;392.65;44.72;;;;;;;0.42;nan;102202.38;10398463;28;20041;-83
2022/01/10 10:56:20;;;;;;;347.05;82.78;;;;;;;0.38;nan;102197.78;10398798;28;20125;-83
2022/01/10 11:01:23;;;;;;;406.02;92.10;;;;;;;0.25;nan;102205.94;10406015;28;20069;-83
2022/01/10 11:06:28;;;;;;;349.50;49.20;;;;;;;0.35;nan;102207.66;10398451;28;20060;-83
2022/01/10 11:11:30;;;;;;;308.13;38.05;;;;;;;0.31;nan;102216.63;10397568;28;20060;-83
2022/01/10 11:16:36;;;;;;;304.30;56.20;;;;;;;0.50;nan;102216.63;10414473;28;20041;-83
2022/01/10 11:21:42;;;;;;;311.65;50.13;;;;;;;0.71;nan;102225.22;10397246;28;20045;-83
2022/01/10 11:26:45;;;;;;;252.23;47.30;;;;;;;0.50;nan;102229.28;10397147;28;20052;-84
2022/01/10 11:31:47;;;;;;;290.30;57.72;;;;;;;0.81;nan;102241.25;10381128;28;20053;-83
2022/01/10 11:36:50;;;;;;;336.48;72.30;;;;;;;0.79;nan;102243.63;10380275;28;20046;-84
2022/01/10 11:41:54;;;;;;;352.13;87.32;;;;;;;0.88;nan;102249.50;10396570;28;20405;-84
2022/01/10 11:46:58;;;;;;;442.52;79.57;;;;;;;0.91;nan;102259.03;10414656;28;20087;-84
2022/01/10 11:52:01;;;;;;;487.05;97.75;;;;;;;0.61;nan;102256.50;10380102;28;20049;-84
2022/01/10 11:57:06;;;;;;;324.30;37.53;;;;;;;0.66;nan;102261.97;10417504;28;20034;-84
2022/01/10 12:02:20;;;;;;;320.52;44.65;;;;;;;1.05;nan;102271.25;10413434;28;20059;-84
2022/01/10 12:07:22;;;;;;;294.15;50.13;;;;;;;0.62;nan;102283.66;10429024;28;20444;-84
2022/01/10 12:12:25;;;;;;;330.15;50.17;;;;;;;0.98;nan;102285.84;10395914;28;20095;-84
2022/01/10 12:17:30;;;;;;;405.35;44.25;;;;;;;1.07;nan;102286.66;10396564;28;20041;-84
2022/01/10 12:22:32;;;;;;;411.13;48.10;;;;;;;1.06;nan;102289.94;10410941;28;20072;-84
2022/01/10 12:27:35;;;;;;;422.27;46.13;;;;;;;1.07;nan;102306.97;10396844;28;20056;-84
2022/01/10 12:32:38;;;;;;;379.98;41.17;;;;;;;1.03;nan;102310.88;10429481;28;20507;-84
2022/01/10 12:37:39;;;;;;;497.67;55.55;;;;;;;1.08;nan;102307.09;10396880;28;20041;-84
2022/01/10 12:42:46;;;;;;;367.02;41.97;;;;;;;1.49;nan;102308.88;10396739;28;20048;-85
2022/01/10 12:47:48;;;;;;;323.58;38.53;;;;;;;1.62;nan;102322.59;10415067;28;20042;-84
2022/01/10 12:52:52;;;;;;;401.17;80.20;;;;;;;1.62;nan;102320.06;10380797;28;20056;-84
2022/01/10 12:57:54;;;;;;;307.33;56.47;;;;;;;1.69;nan;102329.97;10399914;28;20045;-84
2022/01/10 13:03:02;;;;;;;381.00;41.53;;;;;;;2.05;nan;102329.66;10381221;28;20049;-84
2022/01/10 13:08:06;;;;;;;341.13;37.72;;;;;;;2.24;nan;102340.47;10413583;28;20132;-84
2022/01/10 13:13:09;;;;;;;244.70;39.25;;;;;;;2.45;nan;102342.22;10396187;28;20515;-84
2022/01/10 13:18:12;;;;;;;345.23;40.70;;;;;;;2.61;nan;102351.13;10396414;28;20129;-84
2022/01/10 13:23:16;;;;;;;412.02;43.70;;;;;;;2.21;nan;102356.38;10396508;28;20121;-85
2022/01/10 13:28:19;;;;;;;341.85;52.28;;;;;;;2.32;nan;102369.97;10396041;28;20420;-84
2022/01/10 13:33:37;;;;;;;206.20;36.45;;;;;;;2.70;nan;102370.56;10396876;28;20042;-85
2022/01/10 13:38:39;;;;;;;317.75;37.28;;;;;;;2.64;nan;102379.38;10421767;28;20041;-85
2022/01/10 13:43:44;;;;;;;342.58;37.00;;;;;;;2.59;nan;102383.19;10404390;28;20041;-84
2022/01/10 13:48:53;;;;;;;301.55;37.70;;;;;;;2.25;nan;102383.81;10421316;28;20034;-85
2022/01/10 13:53:55;;;;;;;384.92;39.00;;;;;;;2.27;nan;102381.44;10387928;28;20132;-85
2022/01/10 13:59:03;;;;;;;331.52;36.28;;;;;;;2.35;nan;102391.47;10423269;28;20057;-85
2022/01/10 14:04:26;;;;;;;342.27;44.50;;;;;;;2.45;nan;102400.75;10419806;28;20083;-86
2022/01/10 14:09:29;;;;;;;262.73;35.28;;;;;;;2.18;nan;102405.31;10418747;28;20128;-85
2022/01/10 14:14:32;;;;;;;227.23;37.47;;;;;;;2.25;nan;102405.81;10386887;28;20049;-85
2022/01/10 14:19:33;;;;;;;323.23;35.63;;;;;;;2.21;nan;102423.34;10401942;28;20147;-86
2022/01/10 14:24:36;;;;;;;293.10;45.33;;;;;;;2.17;nan;102428.97;10406215;28;20048;-85
2022/01/10 14:29:42;;;;;;;460.67;72.82;;;;;;;2.15;nan;102430.47;10429001;28;20033;-86
2022/01/10 14:34:44;;;;;;;214.18;35.10;;;;;;;2.42;nan;102436.09;10433460;28;20044;-85
2022/01/10 14:39:45;;;;;;;222.73;32.50;;;;;;;2.22;nan;102449.69;10401499;28;20053;-87
2022/01/10 14:44:47;;;;;;;128.88;29.95;;;;;;;2.28;nan;102462.00;10416513;28;20049;-86
2022/01/10 14:49:49;;;;;;;60.95;25.75;;;;;;;1.88;nan;102462.97;10417460;28;20041;-86
2022/01/10 14:54:55;;;;;;;59.65;24.73;;;;;;;1.64;nan;102486.22;10385474;28;20045;-87
2022/01/10 14:59:57;;;;;;;59.05;23.90;;;;;;;1.32;nan;102502.97;10400059;28;20064;-86
2022/01/10 15:05:02;;;;;;;71.57;28.55;;;;;;;1.04;nan;102503.00;10416578;28;20417;-87
2022/01/10 15:10:04;;;;;;;62.63;22.55;;;;;;;0.88;nan;102521.03;10400556;28;20136;-86
2022/01/10 15:15:07;;;;;;;50.78;19.92;;;;;;;0.69;nan;102532.78;10447429;28;20411;-86
2022/01/10 15:20:10;;;;;;;365.92;31.67;;;;;;;0.33;nan;102551.44;10384231;28;20053;-87
2022/01/10 15:25:13;;;;;;;336.38;26.20;;;;;;;0.31;nan;102554.72;10415944;28;20603;-86
2022/01/10 15:30:14;;;;;;;210.98;20.70;;;;;;;0.38;nan;102562.91;10378157;28;20084;-88
2022/01/10 15:35:16;;;;;;;235.40;23.33;;;;;;;0.11;nan;102562.97;10406212;28;20455;-87
2022/01/10 15:40:18;;;;;;;283.60;22.63;;;;;;;0.23;nan;102575.91;10431647;28;20045;-86
2022/01/10 15:45:43;;;;;;;360.08;26.15;;;;;;;0.25;nan;102587.09;10417298;28;20041;-86
2022/01/10 15:51:08;;;;;;;360.05;22.63;;;;;;;0.25;nan;102592.19;10390725;28;20405;-86
2022/01/10 15:56:10;;;;;;;306.35;21.88;;;;;;;0.09;nan;102599.94;10399070;28;20067;-87
2022/01/10 16:01:11;;;;;;;396.98;26.88;;;;;;;-0.15;nan;102606.09;10432630;28;20050;-87
2022/01/10 16:06:13;;;;;;;287.77;19.98;;;;;;;-0.17;nan;102622.78;10401335;28;20053;-88
2022/01/10 16:11:16;;;;;;;397.13;28.95;;;;;;;-0.39;nan;102632.47;10415278;28;20052;-87
2022/01/10 16:16:19;;;;;;;282.15;26.02;;;;;;;-0.21;nan;102643.50;10419118;28;20054;-86
2022/01/10 16:21:21;;;;;;;208.40;19.67;;;;;;;-0.30;nan;102640.97;10414689;28;20068;-86
2022/01/10 16:26:23;;;;;;;345.40;40.63;;;;;;;-0.58;nan;102648.34;10402432;28;20099;-88
2022/01/10 16:31:25;;;;;;;151.52;16.88;;;;;;;-0.15;nan;102644.09;10389197;28;20077;-85
2022/01/10 16:36:27;;;;;;;272.52;27.70;;;;;;;-0.44;nan;102658.94;10411061;28;20069;-85
2022/01/10 16:41:29;;;;;;;133.88;22.23;;;;;;;-0.49;nan;102669.53;10409592;28;20045;-86
2022/01/10 16:46:31;;;;;;;394.38;32.15;;;;;;;-0.65;nan;102674.72;10384933;28;20083;-84
2022/01/10 16:51:33;;;;;;;328.20;28.45;;;;;;;-0.63;nan;102682.47;10393272;28;20518;-87
2022/01/10 16:56:37;;;;;;;243.73;28.02;;;;;;;-0.88;nan;102699.34;10418132;28;20080;-87
2022/01/10 17:01:43;;;;;;;257.88;25.02;;;;;;;-0.67;nan;102696.44;10402368;28;20489;-86
2022/01/10 17:06:44;;;;;;;143.52;17.60;;;;;;;-0.62;nan;102706.13;10406298;28;20037;-85
2022/01/10 17:11:47;;;;;;;339.30;112.65;;;;;;;-0.78;nan;102707.09;10419401;28;20049;-86
2022/01/10 17:16:49;;;;;;;365.10;91.68;;;;;;;-0.61;nan;102711.38;10421005;28;20461;-85
2022/01/10 17:21:59;;;;;;;156.15;18.50;;;;;;;-0.44;nan;102715.56;10393331;28;20437;-85
2022/01/10 17:27:02;;;;;;;92.68;14.85;;;;;;;-0.57;nan;102732.81;10382331;28;20423;-85
2022/01/10 17:32:05;;;;;;;105.70;20.45;;;;;;;-0.86;nan;102738.38;10415641;28;20053;-84
2022/01/10 17:37:07;;;;;;;160.93;21.65;;;;;;;-1.00;nan;102740.34;10403575;28;20049;-84
2022/01/10 17:42:09;;;;;;;205.57;23.40;;;;;;;-0.95;nan;102753.47;10421450;28;20152;-83
2022/01/10 17:47:13;;;;;;;95.15;16.98;;;;;;;-0.79;nan;102763.56;10426731;28;20069;-83
2022/01/10 17:52:24;;;;;;;93.90;15.55;;;;;;;-0.58;nan;102766.47;10421718;28;20049;-84
2022/01/10 17:57:27;;;;;;;134.73;18.08;;;;;;;-0.98;nan;102779.38;10406702;28;20464;-83
2022/01/10 18:02:29;;;;;;;147.52;17.75;;;;;;;-0.79;nan;102788.88;10429598;28;20049;-84
2022/01/10 18:07:32;;;;;;;230.27;20.80;;;;;;;-1.19;nan;102792.34;10422939;28;20053;-84
2022/01/10 18:12:34;;;;;;;97.28;14.73;;;;;;;-0.80;nan;102797.19;10387163;28;20041;-84
2022/01/10 18:17:38;;;;;;;138.00;19.60;;;;;;;-1.00;nan;102801.09;10411106;28;20060;-84
2022/01/10 18:22:40;;;;;;;548.92;199.85;;;;;;;-1.11;nan;102811.75;10434887;28;20045;-84
2022/01/10 18:27:45;;;;;;;324.20;93.70;;;;;;;-0.80;nan;102809.84;10420030;28;20650;-84
2022/01/10 18:32:50;;;;;;;83.78;19.95;;;;;;;-0.94;nan;102828.66;10460299;28;20044;-84
2022/01/10 18:37:55;;;;;;;167.63;21.95;;;;;;;-1.28;nan;102832.75;10437963;28;20407;-84
2022/01/10 18:42:57;;;;;;;109.07;18.38;;;;;;;-0.95;nan;102836.97;10432651;28;20046;-84
2022/01/10 18:47:59;;;;;;;112.40;18.83;;;;;;;-1.52;nan;102846.19;10413231;28;20037;-83
2022/01/10 18:53:01;;;;;;;116.55;25.63;;;;;;;-1.57;nan;102858.38;10380375;28;20056;-83
2022/01/10 18:58:02;;;;;;;91.25;18.65;;;;;;;-1.70;nan;102860.31;10453882;28;20038;-84
2022/01/10 19:03:04;;;;;;;65.90;17.33;;;;;;;-1.68;nan;102854.72;10412651;28;20082;-83
2022/01/10 19:08:06;;;;;;;64.88;19.08;;;;;;;-1.81;nan;102864.22;10372177;28;20041;-83
2022/01/10 19:13:08;;;;;;;75.47;16.80;;;;;;;-1.53;nan;102875.66;10424312;28;20073;-84
2022/01/10 19:18:10;;;;;;;127.13;20.48;;;;;;;-1.87;nan;102872.06;10390818;28;20100;-83
2022/01/10 19:23:17;;;;;;;144.45;24.85;;;;;;;-1.98;nan;102872.50;10409639;28;20508;-84
2022/01/10 19:28:22;;;;;;;84.13;24.10;;;;;;;-2.07;nan;102878.34;10398006;28;20100;-83
2022/01/10 19:33:24;;;;;;;77.25;18.98;;;;;;;-1.99;nan;102879.19;10410436;28;20052;-83
2022/01/10 19:38:25;;;;;;;44.10;15.95;;;;;;;-1.86;nan;102878.88;10408459;28;20030;-84
2022/01/10 19:43:27;;;;;;;58.35;17.48;;;;;;;-1.81;nan;102885.34;10405873;28;20063;-84
2022/01/10 19:48:30;;;;;;;58.05;16.23;;;;;;;-1.77;nan;102889.97;10407847;28;20482;-84
2022/01/10 19:53:32;;;;;;;38.55;15.38;;;;;;;-1.68;nan;102900.22;10404144;28;20099;-84
2022/01/10 19:58:34;;;;;;;43.75;12.98;;;;;;;-1.87;nan;102902.38;10409416;28;20128;-84
2022/01/10 20:03:36;;;;;;;22.40;11.82;;;;;;;-1.97;nan;102910.56;10424784;28;20450;-83
2022/01/10 20:08:39;;;;;;;31.33;12.45;;;;;;;-2.14;nan;102917.94;10408992;28;20041;-84
2022/01/10 20:13:40;;;;;;;33.13;12.40;;;;;;;-2.15;nan;102923.72;10430761;28;20045;-84
2022/01/10 20:18:43;;;;;;;25.25;12.18;;;;;;;-2.13;nan;102940.81;10390234;28;20051;-84
2022/01/10 20:23:48;;;;;;;22.95;12.00;;;;;;;-2.60;nan;102951.59;10407741;28;20054;-84
2022/01/10 20:28:51;;;;;;;21.98;11.93;;;;;;;-2.54;nan;102959.88;10425626;28;20056;-85
2022/01/10 20:33:57;;;;;;;28.05;13.80;;;;;;;-2.61;nan;102963.31;10405677;28;20107;-84
2022/01/10 20:38:59;;;;;;;27.33;12.60;;;;;;;-2.29;nan;102950.88;10378590;28;20069;-84
2022/01/10 20:44:02;;;;;;;25.38;11.48;;;;;;;-2.15;nan;102938.88;10382126;28;20144;-84
2022/01/10 20:49:04;;;;;;;21.77;11.57;;;;;;;-2.21;nan;102953.34;10389184;28;20045;-85
2022/01/10 20:54:09;;;;;;;23.85;12.10;;;;;;;-2.22;nan;102952.44;10409926;28;20493;-84
2022/01/10 20:59:11;;;;;;;22.88;12.70;;;;;;;-2.26;nan;102956.25;10410515;28;20081;-84
2022/01/10 21:04:13;;;;;;;26.65;13.73;;;;;;;-2.30;nan;102960.78;10426777;28;20232;-85
2022/01/10 21:09:15;;;;;;;26.98;14.68;;;;;;;-2.33;nan;102968.91;10392924;28;20041;-85
2022/01/10 21:14:17;;;;;;;27.83;14.88;;;;;;;-2.47;nan;102980.03;10423895;28;20192;-85
2022/01/10 21:19:18;;;;;;;27.40;14.95;;;;;;;-2.46;nan;102980.91;10405853;28;20121;-85
2022/01/10 21:24:20;;;;;;;25.20;13.60;;;;;;;-2.42;nan;102989.00;10427069;28;20105;-84
2022/01/10 21:29:22;;;;;;;24.02;13.15;;;;;;;-2.48;nan;102992.44;10423905;28;20128;-84
2022/01/10 21:34:25;;;;;;;29.42;13.88;;;;;;;-2.56;nan;102999.16;10426418;28;20132;-85
2022/01/10 21:39:28;;;;;;;28.35;14.43;;;;;;;-2.52;nan;103000.41;10392084;28;20041;-84
2022/01/10 21:44:29;;;;;;;24.60;12.52;;;;;;;-2.55;nan;103006.91;10406036;28;20042;-84
2022/01/10 21:49:32;;;;;;;23.45;12.00;;;;;;;-2.53;nan;103008.72;10408785;28;20048;-84
2022/01/10 21:54:33;;;;;;;22.75;12.68;;;;;;;-2.61;nan;103011.28;10424995;28;20055;-84
2022/01/10 21:59:36;;;;;;;24.10;12.55;;;;;;;-2.51;nan;103009.78;10415051;28;20423;-84
2022/01/10 22:04:38;;;;;;;26.02;13.43;;;;;;;-2.55;nan;103019.53;10423681;28;20069;-84
2022/01/10 22:09:39;;;;;;;23.10;13.10;;;;;;;-2.46;nan;103008.69;10418190;28;20088;-84
2022/01/10 22:14:41;;;;;;;26.58;14.00;;;;;;;-2.70;nan;103010.22;10417721;28;20083;-84
2022/01/10 22:19:43;;;;;;;21.38;12.80;;;;;;;-2.38;nan;103009.56;10431060;28;20103;-84
2022/01/10 22:24:45;;;;;;;26.35;12.93;;;;;;;-2.40;nan;103006.84;10411231;28;20060;-84
2022/01/10 22:29:47;;;;;;;38.38;14.02;;;;;;;-2.36;nan;103006.47;10401158;28;20041;-84
2022/01/10 22:34:49;;;;;;;74.43;17.25;;;;;;;-2.31;nan;102996.88;10411068;28;20050;-84
2022/01/10 22:39:51;;;;;;;65.05;18.48;;;;;;;-2.40;nan;103011.88;10412097;28;20061;-84
2022/01/10 22:44:53;;;;;;;72.40;18.05;;;;;;;-2.40;nan;103004.31;10410948;28;20045;-84
2022/01/10 22:49:55;;;;;;;87.55;18.23;;;;;;;-2.52;nan;103001.31;10396726;28;20055;-83
2022/01/10 22:54:56;;;;;;;141.18;23.00;;;;;;;-2.61;nan;103013.78;10380737;28;20421;-84
2022/01/10 22:59:59;;;;;;;40.70;16.45;;;;;;;-2.19;nan;103007.44;10390809;28;20045;-84
2022/01/10 23:05:00;;;;;;;88.70;20.02;;;;;;;-2.44;nan;103009.75;10392124;28;20049;-84
2022/01/10 23:10:02;;;;;;;56.33;17.80;;;;;;;-2.45;nan;103018.03;10397080;28;20042;-84
2022/01/10 23:15:06;;;;;;;79.55;18.65;;;;;;;-2.44;nan;103020.75;10396010;28;20045;-84